Time;durP1;ratioP1;P1;durP2;ratioP2;P2;SDS_P1;SDS_P2;PMS_P1;PMS_P2;Temp;Humidity;BMP_temperature;BMP_pressure;BME280_temperature;BME280_humidity;BME280_pressure;Samples;Min_cycle;Max_cycle;Signal;HPM_P1;HPM_P2
2022/03/17 00:00:21;;;;;;;;;;;;;;;-1.81;56.13;102388.31;4971852;28;19932;-61
2022/03/17 00:03:05;;;;;;;;;;;;;;;-1.80;55.89;102397.00;4976312;28;20432;-62
2022/03/17 00:05:50;;;;;;;;;;;;;;;-1.87;57.14;102402.53;4956895;28;19929;-62
2022/03/17 00:08:35;;;;;;;;;;;;;;;-1.87;57.46;102407.75;4970401;28;19928;-62
2022/03/17 00:11:20;;;;;;;;;;;;;;;-1.86;57.17;102401.78;4970082;28;19928;-68
2022/03/17 00:14:05;;;;;;;;;;;;;;;-1.94;57.51;102400.34;4973524;28;19968;-61
2022/03/17 00:16:50;;;;;;;;;;;;;;;-1.85;57.45;102398.38;4954638;28;19967;-60
2022/03/17 00:19:36;;;;;;;;;;;;;;;-1.77;58.61;102400.72;4971800;28;20306;-62
2022/03/17 00:22:20;;;;;;;;;;;;;;;-1.76;56.80;102406.81;4955815;28;19932;-62
2022/03/17 00:25:07;;;;;;;;;;;;;;;-1.83;58.00;102407.16;4971242;28;19941;-62
2022/03/17 00:27:52;;;;;;;;;;;;;;;-1.90;57.11;102400.63;4958080;28;20021;-63
2022/03/17 00:30:37;;;;;;;;;;;;;;;-2.00;56.75;102394.69;4956114;28;20436;-68
2022/03/17 00:33:21;;;;;;;;;;;;;;;-2.12;58.28;102406.78;4974492;28;19932;-62
2022/03/17 00:36:06;;;;;;;;;;;;;;;-2.10;58.31;102407.81;4970005;28;19928;-62
2022/03/17 00:38:50;;;;;;;;;;;;;;;-2.15;57.64;102404.88;4973583;28;20032;-62
2022/03/17 00:41:35;;;;;;;;;;;;;;;-2.15;59.25;102403.97;4975947;28;19932;-62
2022/03/17 00:44:19;;;;;;;;;;;;;;;-2.14;60.16;102408.41;4957618;28;19929;-62
2022/03/17 00:47:04;;;;;;;;;;;;;;;-2.08;61.15;102420.13;4973556;28;19969;-61
2022/03/17 00:49:48;;;;;;;;;;;;;;;-2.15;60.22;102419.56;4955847;28;19928;-67
2022/03/17 00:52:33;;;;;;;;;;;;;;;-2.12;60.20;102420.69;4973112;28;19929;-62
2022/03/17 00:55:18;;;;;;;;;;;;;;;-2.07;61.24;102423.63;4955093;28;20016;-62
2022/03/17 00:58:02;;;;;;;;;;;;;;;-2.07;61.08;102426.22;4960902;28;19944;-63
2022/03/17 01:00:47;;;;;;;;;;;;;;;-2.14;59.57;102427.47;4970604;28;20369;-63
2022/03/17 01:03:31;;;;;;;;;;;;;;;-2.12;59.72;102423.31;4974897;28;19932;-62
2022/03/17 01:06:16;;;;;;;;;;;;;;;-2.13;59.55;102426.66;4973557;28;19933;-66
2022/03/17 01:09:00;;;;;;;;;;;;;;;-2.20;59.93;102428.72;4971337;28;20393;-64
2022/03/17 01:11:46;;;;;;;;;;;;;;;-2.23;60.34;102418.09;4970650;28;19933;-64
2022/03/17 01:14:31;;;;;;;;;;;;;;;-2.22;60.24;102433.81;4968864;28;19976;-62
2022/03/17 01:17:15;;;;;;;;;;;;;;;-2.25;60.36;102428.38;4972017;28;20323;-61
2022/03/17 01:19:59;;;;;;;;;;;;;;;-2.22;60.72;102432.91;4970054;28;19976;-63
2022/03/17 01:22:44;;;;;;;;;;;;;;;-2.20;61.19;102432.25;4972762;28;19928;-62
2022/03/17 01:25:28;;;;;;;;;;;;;;;-2.21;60.88;102442.53;4974781;28;20122;-61
2022/03/17 01:28:13;;;;;;;;;;;;;;;-2.18;60.40;102447.94;4959978;28;19929;-62
2022/03/17 01:30:57;;;;;;;;;;;;;;;-2.27;59.74;102447.25;4974692;28;19929;-61
2022/03/17 01:33:42;;;;;;;;;;;;;;;-2.40;60.64;102439.34;4973236;28;19956;-68
2022/03/17 01:36:26;;;;;;;;;;;;;;;-2.47;60.19;102442.28;4976102;28;19929;-62
2022/03/17 01:39:12;;;;;;;;;;;;;;;-2.46;61.33;102449.31;4957423;28;19977;-62
2022/03/17 01:41:57;;;;;;;;;;;;;;;-2.42;60.30;102452.22;4974106;28;19929;-62
2022/03/17 01:44:41;;;;;;;;;;;;;;;-2.38;60.87;102453.38;4978566;28;20386;-61
2022/03/17 01:47:29;;;;;;;;;;;;;;;-2.50;61.39;102463.75;4975150;28;19929;-62
2022/03/17 01:50:15;;;;;;;;;;;;;;;-2.51;61.09;102451.56;4945765;28;20337;-62
2022/03/17 01:53:01;;;;;;;;;;;;;;;-2.60;62.41;102448.28;4956602;28;19971;-63
2022/03/17 01:55:45;;;;;;;;;;;;;;;-2.70;61.94;102458.75;4959809;28;19945;-61
2022/03/17 01:58:31;;;;;;;;;;;;;;;-2.70;62.65;102444.84;4957669;28;20016;-60
2022/03/17 02:01:15;;;;;;;;;;;;;;;-2.75;62.60;102454.00;4976360;28;19929;-62
2022/03/17 02:04:00;;;;;;;;;;;;;;;-2.74;63.97;102451.53;4945965;28;19932;-64
2022/03/17 02:06:44;;;;;;;;;;;;;;;-2.82;64.98;102457.84;4977267;28;19968;-61
2022/03/17 02:09:29;;;;;;;;;;;;;;;-2.74;65.95;102456.72;4960772;28;19984;-62
2022/03/17 02:15:17;;;;;;;;;;;;;;;-2.87;63.15;102466.97;4974556;28;20405;-61
2022/03/17 02:18:02;;;;;;;;;;;;;;;-2.82;64.81;102464.69;4958989;28;19968;-62
2022/03/17 02:20:47;;;;;;;;;;;;;;;-2.77;63.63;102465.97;4957249;28;19980;-63
2022/03/17 02:26:37;;;;;;;;;;;;;;;-2.88;64.83;102475.56;4975354;28;19928;-61
2022/03/17 02:29:21;;;;;;;;;;;;;;;-2.86;64.24;102475.63;4970809;28;19937;-63
2022/03/17 02:32:08;;;;;;;;;;;;;;;-2.84;64.50;102476.69;4975018;28;20286;-63
2022/03/17 02:34:54;;;;;;;;;;;;;;;-2.85;64.79;102475.75;4970027;28;19930;-61
2022/03/17 02:37:39;;;;;;;;;;;;;;;-2.80;64.87;102476.13;4958627;28;20056;-61
2022/03/17 02:40:27;;;;;;;;;;;;;;;-2.99;65.58;102473.81;4960568;28;20302;-62
2022/03/17 02:43:14;;;;;;;;;;;;;;;-2.95;65.32;102488.84;4956724;28;20068;-67
2022/03/17 02:45:59;;;;;;;;;;;;;;;-2.91;65.53;102489.97;4945562;28;19933;-62
2022/03/17 02:48:43;;;;;;;;;;;;;;;-2.94;65.74;102500.09;4971593;28;19979;-62
2022/03/17 02:51:28;;;;;;;;;;;;;;;-2.94;66.13;102506.22;4972967;28;20302;-62
2022/03/17 02:54:12;;;;;;;;;;;;;;;-2.97;66.07;102521.53;4973556;28;19933;-63
2022/03/17 02:56:56;;;;;;;;;;;;;;;-3.03;67.07;102518.50;4973753;28;20298;-62
2022/03/17 02:59:41;;;;;;;;;;;;;;;-3.20;65.17;102526.66;4974974;28;20437;-62
2022/03/17 03:02:25;;;;;;;;;;;;;;;-3.17;65.95;102532.06;4972133;28;19944;-67
2022/03/17 03:05:10;;;;;;;;;;;;;;;-3.12;66.65;102535.94;4974482;28;20028;-62
2022/03/17 03:07:54;;;;;;;;;;;;;;;-3.10;66.56;102533.44;4955234;28;19976;-61
2022/03/17 03:10:39;;;;;;;;;;;;;;;-3.10;65.95;102539.56;4973695;28;20341;-62
2022/03/17 03:13:23;;;;;;;;;;;;;;;-3.09;66.96;102543.94;4956837;28;19932;-62
2022/03/17 03:16:08;;;;;;;;;;;;;;;-3.19;66.83;102549.22;4958875;28;19928;-62
2022/03/17 03:18:52;;;;;;;;;;;;;;;-3.15;66.92;102550.34;4957820;28;19968;-62
2022/03/17 03:21:38;;;;;;;;;;;;;;;-3.07;66.96;102554.47;4971979;28;20004;-68
2022/03/17 03:24:22;;;;;;;;;;;;;;;-3.01;66.74;102560.13;4960271;28;20068;-62
2022/03/17 03:27:07;;;;;;;;;;;;;;;-3.02;66.70;102556.63;4971830;28;19929;-65
2022/03/17 03:29:51;;;;;;;;;;;;;;;-3.06;66.77;102554.56;4965101;28;19933;-64
2022/03/17 03:32:37;;;;;;;;;;;;;;;-3.04;66.23;102562.50;4959597;28;19929;-61
2022/03/17 03:38:25;;;;;;;;;;;;;;;-3.08;65.81;102560.44;4972599;28;19929;-62
2022/03/17 03:41:09;;;;;;;;;;;;;;;-3.21;65.57;102570.66;4957154;28;19971;-64
2022/03/17 03:43:54;;;;;;;;;;;;;;;-3.25;66.56;102566.00;4957889;28;19929;-63
2022/03/17 03:46:38;;;;;;;;;;;;;;;-3.17;67.77;102563.22;4971384;28;20143;-61
2022/03/17 03:49:23;;;;;;;;;;;;;;;-3.26;67.70;102571.94;4957694;28;19960;-61
2022/03/17 03:52:08;;;;;;;;;;;;;;;-3.30;66.90;102570.81;4960032;28;19976;-61
2022/03/17 03:54:53;;;;;;;;;;;;;;;-3.25;67.76;102572.06;4956063;28;20277;-64
2022/03/17 03:57:38;;;;;;;;;;;;;;;-3.26;66.19;102575.47;4976996;28;19945;-62
2022/03/17 04:03:15;;;;;;;;;;;;;;;-3.25;66.24;102578.97;4972476;28;20405;-65
2022/03/17 04:05:59;;;;;;;;;;;;;;;-3.24;66.61;102583.38;4973687;28;19933;-62
2022/03/17 04:08:44;;;;;;;;;;;;;;;-3.20;66.15;102585.41;4968617;28;19929;-71
2022/03/17 04:11:29;;;;;;;;;;;;;;;-3.14;64.93;102585.88;4930131;28;19949;-61
2022/03/17 04:14:14;;;;;;;;;;;;;;;-3.26;63.79;102593.63;4955070;28;19945;-62
2022/03/17 04:16:58;;;;;;;;;;;;;;;-3.20;65.07;102598.41;4943831;28;19929;-61
2022/03/17 04:19:43;;;;;;;;;;;;;;;-3.10;65.56;102598.31;4955940;28;20376;-61
2022/03/17 04:22:27;;;;;;;;;;;;;;;-3.04;65.60;102601.41;4972858;28;20282;-61
2022/03/17 04:25:12;;;;;;;;;;;;;;;-3.06;65.60;102603.88;4970770;28;19956;-63
2022/03/17 04:27:57;;;;;;;;;;;;;;;-3.02;64.68;102605.03;4970940;28;19929;-72
2022/03/17 04:30:41;;;;;;;;;;;;;;;-2.93;63.75;102617.03;4971090;28;20016;-61
2022/03/17 04:33:26;;;;;;;;;;;;;;;-2.92;62.27;102613.69;4969448;28;19929;-63
2022/03/17 04:36:11;;;;;;;;;;;;;;;-2.86;62.66;102621.00;4956608;28;20342;-62
2022/03/17 04:38:56;;;;;;;;;;;;;;;-2.83;61.58;102621.25;4941633;28;19957;-61
2022/03/17 04:41:41;;;;;;;;;;;;;;;-2.82;61.81;102623.97;4969898;28;19972;-61
2022/03/17 04:44:25;;;;;;;;;;;;;;;-2.73;60.86;102629.00;4969798;28;19992;-62
2022/03/17 04:47:09;;;;;;;;;;;;;;;-2.65;61.37;102625.31;4968392;28;20408;-70
2022/03/17 04:49:54;;;;;;;;;;;;;;;-2.52;60.82;102631.56;4957294;28;19965;-62
2022/03/17 04:55:43;;;;;;;;;;;;;;;-2.50;59.04;102629.09;4953831;28;19933;-68
2022/03/17 04:58:28;;;;;;;;;;;;;;;-2.43;59.05;102636.53;4952202;28;20064;-63
2022/03/17 05:01:13;;;;;;;;;;;;;;;-2.34;58.97;102640.75;4948124;29;20050;-62
2022/03/17 05:03:58;;;;;;;;;;;;;;;-2.42;58.18;102641.88;4950471;28;19929;-63
2022/03/17 05:06:43;;;;;;;;;;;;;;;-2.33;58.77;102650.34;4953134;29;20627;-64
2022/03/17 05:09:27;;;;;;;;;;;;;;;-2.29;57.67;102651.53;4951234;29;19929;-63
2022/03/17 05:12:12;;;;;;;;;;;;;;;-2.17;56.64;102655.94;4935539;29;20428;-63
2022/03/17 05:14:56;;;;;;;;;;;;;;;-2.09;56.44;102660.03;4922777;29;20295;-70
2022/03/17 05:17:41;;;;;;;;;;;;;;;-2.06;55.76;102660.25;4953784;28;19980;-63
2022/03/17 05:20:25;;;;;;;;;;;;;;;-2.01;55.39;102663.22;4950534;29;20338;-64
2022/03/17 05:23:11;;;;;;;;;;;;;;;-1.91;54.74;102669.22;4952259;29;19944;-62
2022/03/17 05:25:56;;;;;;;;;;;;;;;-1.80;54.32;102657.94;4949410;29;19953;-62
2022/03/17 05:28:40;;;;;;;;;;;;;;;-1.69;53.40;102669.16;4951740;29;19930;-61
2022/03/17 05:31:25;;;;;;;;;;;;;;;-1.71;52.42;102670.72;4953284;29;19953;-65
2022/03/17 05:34:09;;;;;;;;;;;;;;;-1.73;51.90;102667.09;4949851;29;19993;-62
2022/03/17 05:36:53;;;;;;;;;;;;;;;-1.61;50.97;102675.81;4952798;29;19969;-62
2022/03/17 05:39:38;;;;;;;;;;;;;;;-1.55;50.78;102668.47;4947765;29;19985;-77
2022/03/17 05:42:22;;;;;;;;;;;;;;;-1.72;50.37;102675.03;4965287;28;19950;-63
2022/03/17 05:45:07;;;;;;;;;;;;;;;-1.77;49.56;102673.78;4949176;29;19929;-63
2022/03/17 05:47:52;;;;;;;;;;;;;;;-1.77;49.56;102670.28;4963014;28;20081;-62
2022/03/17 05:50:41;;;;;;;;;;;;;;;-1.71;49.36;102670.72;4953815;28;19988;-64
2022/03/17 05:53:26;;;;;;;;;;;;;;;-1.64;48.51;102675.59;4941588;28;20021;-72
2022/03/17 05:56:10;;;;;;;;;;;;;;;-1.55;48.32;102681.47;4970505;28;20003;-64
2022/03/17 05:58:55;;;;;;;;;;;;;;;-1.42;47.81;102679.88;4953242;28;19968;-63
2022/03/17 06:01:39;;;;;;;;;;;;;;;-1.19;47.72;102677.28;4971418;28;19976;-63
2022/03/17 06:04:24;;;;;;;;;;;;;;;-1.23;46.67;102675.25;4968161;28;20064;-63
2022/03/17 06:07:10;;;;;;;;;;;;;;;-1.10;46.53;102675.34;4942217;28;20283;-63
2022/03/17 06:09:56;;;;;;;;;;;;;;;-1.00;46.18;102682.13;4975550;28;19955;-63
2022/03/17 06:12:43;;;;;;;;;;;;;;;-1.00;45.91;102677.81;4977639;28;19968;-72
2022/03/17 06:15:29;;;;;;;;;;;;;;;-0.90;45.29;102672.47;4945370;28;20028;-62
2022/03/17 06:18:14;;;;;;;;;;;;;;;-0.86;45.36;102684.91;4943158;28;20045;-64
2022/03/17 06:20:58;;;;;;;;;;;;;;;-0.74;44.78;102688.38;4959207;28;20059;-64
2022/03/17 06:23:45;;;;;;;;;;;;;;;-0.84;44.42;102685.94;4957714;28;20361;-63
2022/03/17 06:26:30;;;;;;;;;;;;;;;-0.58;44.11;102687.78;4953744;28;20409;-63
2022/03/17 06:29:14;;;;;;;;;;;;;;;-0.51;43.29;102683.09;4965721;28;19968;-65
2022/03/17 06:32:00;;;;;;;;;;;;;;;-0.39;42.92;102688.28;4970562;28;20384;-72
2022/03/17 06:34:45;;;;;;;;;;;;;;;-0.27;42.22;102687.44;4979847;28;19986;-63
2022/03/17 06:37:29;;;;;;;;;;;;;;;-0.17;42.21;102683.75;4990306;28;19975;-64
2022/03/17 06:40:15;;;;;;;;;;;;;;;-0.08;41.76;102694.81;4978130;28;19929;-63
2022/03/17 06:43:01;;;;;;;;;;;;;;;0.00;41.64;102691.06;4977678;28;19927;-62
2022/03/17 06:45:46;;;;;;;;;;;;;;;0.19;40.87;102690.59;4965018;28;19928;-62
2022/03/17 06:48:30;;;;;;;;;;;;;;;0.25;40.09;102686.69;4991974;28;19988;-60
2022/03/17 06:51:15;;;;;;;;;;;;;;;0.44;40.06;102688.81;4978993;28;20388;-66
2022/03/17 06:53:59;;;;;;;;;;;;;;;0.53;39.20;102679.91;4986418;28;19968;-68
2022/03/17 06:56:44;;;;;;;;;;;;;;;0.62;38.82;102690.94;4975257;28;19933;-62
2022/03/17 06:59:28;;;;;;;;;;;;;;;0.87;38.35;102696.97;4972462;28;19980;-64
2022/03/17 07:02:13;;;;;;;;;;;;;;;1.18;37.60;102698.13;4979906;28;19976;-63
2022/03/17 07:04:57;;;;;;;;;;;;;;;1.40;37.02;102695.19;4981322;28;19968;-62
2022/03/17 07:07:43;;;;;;;;;;;;;;;1.57;37.07;102695.44;4973935;28;20020;-64
2022/03/17 07:10:29;;;;;;;;;;;;;;;1.72;36.50;102699.00;4977429;28;20366;-75
2022/03/17 07:13:14;;;;;;;;;;;;;;;1.84;36.09;102689.28;4978287;28;19970;-62
2022/03/17 07:15:58;;;;;;;;;;;;;;;2.03;35.27;102694.84;4989968;28;19940;-69
2022/03/17 07:18:43;;;;;;;;;;;;;;;2.14;34.40;102703.34;4966839;28;19929;-61
2022/03/17 07:21:28;;;;;;;;;;;;;;;2.23;34.06;102706.50;4984362;28;19944;-61
2022/03/17 07:24:12;;;;;;;;;;;;;;;2.73;33.62;102700.81;4967801;28;19949;-61
2022/03/17 07:26:58;;;;;;;;;;;;;;;3.10;34.09;102707.34;4989336;28;19976;-62
2022/03/17 07:29:44;;;;;;;;;;;;;;;4.02;33.08;102702.84;4965203;28;20448;-66
2022/03/17 07:32:29;;;;;;;;;;;;;;;4.94;31.04;102710.25;4976893;28;20452;-63
2022/03/17 07:35:15;;;;;;;;;;;;;;;6.02;29.82;102707.59;4962248;28;19983;-60
2022/03/17 07:38:03;;;;;;;;;;;;;;;6.77;27.29;102715.31;4990794;28;19987;-61
2022/03/17 07:40:49;;;;;;;;;;;;;;;7.51;26.07;102704.31;4984996;28;20293;-63
2022/03/17 07:43:34;;;;;;;;;;;;;;;8.66;25.42;102714.78;4962402;28;19924;-64
2022/03/17 07:46:39;;;;;;;;;;;;;;;9.92;23.38;102716.28;4924552;29;20315;-61
2022/03/17 07:49:42;;;;;;;;;;;;;;;10.71;21.37;102717.66;4921540;29;19929;-62
2022/03/17 07:52:27;;;;;;;;;;;;;;;11.78;20.11;102721.22;4924045;29;20330;-62
2022/03/17 07:55:12;;;;;;;;;;;;;;;12.14;21.22;102714.03;4917842;29;19947;-61
2022/03/17 07:57:57;;;;;;;;;;;;;;;12.82;20.10;102715.38;4920822;29;19978;-62
2022/03/17 08:00:44;;;;;;;;;;;;;;;13.33;17.70;102721.56;4916075;29;19930;-67
2022/03/17 08:03:29;;;;;;;;;;;;;;;14.23;17.91;102727.38;4915525;29;19930;-62
2022/03/17 08:06:13;;;;;;;;;;;;;;;14.90;16.38;102735.19;4919497;29;19929;-64
2022/03/17 08:08:58;;;;;;;;;;;;;;;15.70;16.33;102732.31;4916616;29;19962;-63
2022/03/17 08:11:43;;;;;;;;;;;;;;;16.18;15.58;102729.03;4924712;29;19933;-61
2022/03/17 08:14:27;;;;;;;;;;;;;;;17.00;14.54;102740.00;4916884;29;20398;-63
2022/03/17 08:17:11;;;;;;;;;;;;;;;17.62;16.04;102738.22;4922718;29;20430;-64
2022/03/17 08:19:56;;;;;;;;;;;;;;;18.47;13.67;102740.66;4928356;29;19930;-70
2022/03/17 08:22:42;;;;;;;;;;;;;;;19.26;12.94;102739.25;4902652;28;19969;-63
2022/03/17 08:25:27;;;;;;;;;;;;;;;19.47;12.58;102745.34;4949081;28;20333;-63
2022/03/17 08:28:11;;;;;;;;;;;;;;;19.44;12.44;102739.06;4988252;28;19976;-62
2022/03/17 08:30:56;;;;;;;;;;;;;;;19.59;12.97;102729.06;4973331;28;20537;-61
2022/03/17 08:33:40;;;;;;;;;;;;;;;20.08;11.96;102737.50;4989485;28;19928;-62
2022/03/17 08:36:25;;;;;;;;;;;;;;;19.36;13.98;102738.25;4978529;28;19937;-66
2022/03/17 08:39:10;;;;;;;;;;;;;;;19.46;12.06;102739.97;4981549;28;20401;-66
2022/03/17 08:41:56;;;;;;;;;;;;;;;20.02;11.82;102738.44;4980530;28;20020;-63
2022/03/17 08:44:41;;;;;;;;;;;;;;;19.66;12.55;102737.97;4973218;28;20365;-62
2022/03/17 08:50:28;;;;;;;;;;;;;;;19.96;11.15;102740.31;4975401;28;19928;-62
2022/03/17 08:53:13;;;;;;;;;;;;;;;19.84;11.53;102744.06;4962288;28;19933;-63
2022/03/17 08:56:01;;;;;;;;;;;;;;;19.98;12.57;102746.59;4951609;28;19977;-62
2022/03/17 08:58:45;;;;;;;;;;;;;;;19.89;12.13;102742.19;4936050;29;19969;-62
2022/03/17 09:01:30;;;;;;;;;;;;;;;19.84;11.01;102741.38;4949192;29;19974;-64
2022/03/17 09:04:14;;;;;;;;;;;;;;;20.62;11.34;102748.50;4951290;28;19929;-61
2022/03/17 09:07:00;;;;;;;;;;;;;;;20.74;10.47;102747.44;4947786;28;20449;-68
2022/03/17 09:09:45;;;;;;;;;;;;;;;21.01;11.12;102749.75;4921100;29;19934;-64
2022/03/17 09:12:29;;;;;;;;;;;;;;;20.81;10.76;102747.31;4947762;29;20437;-63
2022/03/17 09:15:15;;;;;;;;;;;;;;;21.75;10.33;102747.59;4922064;29;19973;-63
2022/03/17 09:17:59;;;;;;;;;;;;;;;22.28;10.72;102753.75;4955175;29;20437;-62
2022/03/17 09:20:44;;;;;;;;;;;;;;;22.58;9.63;102753.13;4951715;29;20017;-62
2022/03/17 09:23:29;;;;;;;;;;;;;;;22.15;10.46;102752.22;4949903;29;20354;-61
2022/03/17 09:26:16;;;;;;;;;;;;;;;22.72;10.03;102751.00;4949784;29;20409;-70
2022/03/17 09:29:00;;;;;;;;;;;;;;;22.49;10.43;102750.59;4950879;29;19988;-64
2022/03/17 09:31:44;;;;;;;;;;;;;;;22.30;9.67;102747.38;4948965;29;19928;-63
2022/03/17 09:34:31;;;;;;;;;;;;;;;22.40;9.47;102746.28;4963206;28;19944;-63
2022/03/17 09:37:17;;;;;;;;;;;;;;;22.24;9.73;102747.53;4963113;28;19931;-62
2022/03/17 09:40:02;;;;;;;;;;;;;;;22.11;9.81;102742.41;4951539;29;19945;-63
2022/03/17 09:42:47;;;;;;;;;;;;;;;22.02;10.55;102740.75;4950162;28;19930;-61
2022/03/17 09:45:32;;;;;;;;;;;;;;;22.65;10.10;102739.44;4951795;29;20449;-68
2022/03/17 09:48:18;;;;;;;;;;;;;;;22.64;10.00;102743.06;4942507;29;20374;-64
2022/03/17 09:51:05;;;;;;;;;;;;;;;22.91;9.42;102745.16;4943347;28;19949;-62
2022/03/17 09:53:53;;;;;;;;;;;;;;;23.40;9.95;102734.00;4973602;28;19928;-63
2022/03/17 09:56:37;;;;;;;;;;;;;;;23.55;9.19;102741.75;4972870;28;19929;-65
2022/03/17 09:59:22;;;;;;;;;;;;;;;23.73;9.52;102741.28;4964109;28;20344;-69
2022/03/17 10:02:07;;;;;;;;;;;;;;;24.34;9.59;102735.91;4973507;28;19945;-62
2022/03/17 10:04:51;;;;;;;;;;;;;;;24.12;8.98;102730.22;4943694;28;19929;-63
2022/03/17 10:07:37;;;;;;;;;;;;;;;24.87;9.57;102732.44;4978646;28;20429;-62
2022/03/17 10:10:34;;;;;;;;;;;;;;;25.46;8.56;102726.84;4971741;28;20131;-63
2022/03/17 10:13:25;;;;;;;;;;;;;;;26.48;8.37;102721.25;4977524;28;19928;-68
2022/03/17 10:16:11;;;;;;;;;;;;;;;26.81;7.92;102725.44;4946480;28;20053;-62
2022/03/17 10:18:59;;;;;;;;;;;;;;;26.42;8.42;102719.66;4972086;28;19929;-62
2022/03/17 10:21:44;;;;;;;;;;;;;;;27.11;7.84;102733.22;4959143;28;19972;-63
2022/03/17 10:24:33;;;;;;;;;;;;;;;27.58;7.92;102729.41;4978154;28;19976;-62
2022/03/17 10:27:49;;;;;;;;;;;;;;;28.03;7.32;102716.47;4975588;28;19933;-63
2022/03/17 10:30:35;;;;;;;;;;;;;;;28.05;7.00;102725.47;4970055;28;19929;-61
2022/03/17 10:33:21;;;;;;;;;;;;;;;27.02;8.38;102725.44;4953956;28;20429;-62
2022/03/17 10:36:14;;;;;;;;;;;;;;;27.29;8.03;102727.03;4951778;29;19921;-63
2022/03/17 10:38:58;;;;;;;;;;;;;;;28.34;7.43;102727.75;4950175;29;19929;-70
2022/03/17 10:41:44;;;;;;;;;;;;;;;27.97;8.89;102724.06;4951116;29;19994;-64
2022/03/17 10:44:29;;;;;;;;;;;;;;;27.43;8.52;102715.53;4946259;28;20043;-61
2022/03/17 10:47:13;;;;;;;;;;;;;;;27.01;7.21;102726.38;4969478;28;19932;-62
2022/03/17 10:50:03;;;;;;;;;;;;;;;27.60;7.40;102726.63;4955652;28;19976;-62
2022/03/17 10:52:50;;;;;;;;;;;;;;;27.85;7.50;102720.00;4955584;28;19976;-70
2022/03/17 10:55:36;;;;;;;;;;;;;;;28.54;7.28;102714.06;4964463;28;19928;-63
2022/03/17 10:58:21;;;;;;;;;;;;;;;29.29;7.11;102723.09;4954886;28;20326;-63
2022/03/17 11:01:05;;;;;;;;;;;;;;;28.66;6.97;102704.38;4942601;28;19929;-62
2022/03/17 11:03:51;;;;;;;;;;;;;;;28.51;7.76;102718.78;4953291;28;19981;-63
2022/03/17 11:06:38;;;;;;;;;;;;;;;27.62;7.50;102708.34;4932486;28;19968;-63
2022/03/17 11:09:25;;;;;;;;;;;;;;;27.68;7.47;102698.03;4970419;28;19971;-62
2022/03/17 11:12:11;;;;;;;;;;;;;;;27.93;7.52;102704.19;4981354;28;19930;-65
2022/03/17 11:14:56;;;;;;;;;;;;;;;28.46;7.38;102707.19;4957242;28;19929;-63
2022/03/17 11:17:47;;;;;;;;;;;;;;;28.43;6.96;102704.59;4979907;28;19936;-67
2022/03/17 11:20:32;;;;;;;;;;;;;;;28.25;7.01;102706.34;4960297;28;19973;-63
2022/03/17 11:23:24;;;;;;;;;;;;;;;27.90;6.82;102698.91;4971988;28;19944;-61
2022/03/17 11:26:09;;;;;;;;;;;;;;;27.63;6.91;102694.63;4954961;28;19929;-60
2022/03/17 11:29:04;;;;;;;;;;;;;;;27.72;7.58;102698.81;4959790;28;19933;-71
2022/03/17 11:31:56;;;;;;;;;;;;;;;27.60;7.34;102697.50;4984728;28;20028;-62
2022/03/17 11:34:46;;;;;;;;;;;;;;;26.89;7.38;102694.19;4974992;28;19928;-64
2022/03/17 11:37:33;;;;;;;;;;;;;;;25.92;7.92;102693.47;4978286;28;19928;-65
2022/03/17 11:40:19;;;;;;;;;;;;;;;24.73;8.20;102683.16;4963511;28;19940;-63
2022/03/17 11:43:05;;;;;;;;;;;;;;;24.00;8.40;102683.56;4972123;28;20041;-65
2022/03/17 11:45:49;;;;;;;;;;;;;;;23.59;8.89;102683.81;4981492;28;19928;-63
2022/03/17 11:48:35;;;;;;;;;;;;;;;22.95;8.96;102675.56;4941295;28;19976;-62
2022/03/17 11:51:21;;;;;;;;;;;;;;;22.28;9.30;102676.22;4975760;28;19928;-62
2022/03/17 11:54:06;;;;;;;;;;;;;;;21.99;10.27;102674.13;4956180;28;19933;-62
2022/03/17 11:56:53;;;;;;;;;;;;;;;21.37;9.96;102674.44;4970663;28;19929;-62
2022/03/17 11:59:52;;;;;;;;;;;;;;;21.02;10.06;102673.28;4958756;28;19929;-66
2022/03/17 12:02:41;;;;;;;;;;;;;;;20.95;9.90;102663.50;4955978;28;20981;-62
2022/03/17 12:05:26;;;;;;;;;;;;;;;19.89;10.61;102664.09;4970648;28;19929;-62
2022/03/17 12:08:17;;;;;;;;;;;;;;;19.47;10.51;102659.19;4971827;28;20025;-62
2022/03/17 12:11:05;;;;;;;;;;;;;;;19.24;10.80;102642.38;4974154;28;19969;-64
2022/03/17 12:14:08;;;;;;;;;;;;;;;18.98;11.10;102654.25;4985450;28;19928;-64
2022/03/17 12:17:06;;;;;;;;;;;;;;;18.39;11.56;102649.31;4989305;28;20457;-64
2022/03/17 12:20:08;;;;;;;;;;;;;;;17.94;11.87;102641.47;4947018;28;19919;-62
2022/03/17 12:22:52;;;;;;;;;;;;;;;17.69;11.93;102642.47;4972049;28;19971;-65
2022/03/17 12:25:57;;;;;;;;;;;;;;;17.14;11.82;102649.69;4990510;28;19955;-65
2022/03/17 12:28:44;;;;;;;;;;;;;;;16.94;12.34;102645.25;4988522;28;20065;-63
2022/03/17 12:31:28;;;;;;;;;;;;;;;16.93;12.61;102647.03;4972497;28;19992;-64
2022/03/17 12:34:14;;;;;;;;;;;;;;;16.75;12.69;102638.09;4988775;28;19929;-63
2022/03/17 12:37:00;;;;;;;;;;;;;;;16.37;12.87;102643.38;4947076;28;19929;-64
2022/03/17 12:39:49;;;;;;;;;;;;;;;15.93;12.50;102645.03;4973544;28;19960;-68
2022/03/17 12:42:38;;;;;;;;;;;;;;;15.46;12.93;102632.34;4975944;28;19968;-64
2022/03/17 12:45:24;;;;;;;;;;;;;;;15.31;13.62;102643.75;4974242;28;19991;-69
2022/03/17 12:48:10;;;;;;;;;;;;;;;15.01;13.44;102634.63;4973804;28;19936;-63
2022/03/17 12:51:02;;;;;;;;;;;;;;;14.55;13.85;102633.34;4973731;28;20442;-63
2022/03/17 12:53:47;;;;;;;;;;;;;;;14.14;14.04;102629.34;4972607;28;19963;-62
2022/03/17 12:56:54;;;;;;;;;;;;;;;14.10;14.02;102630.19;4988167;28;19972;-62
2022/03/17 12:59:38;;;;;;;;;;;;;;;14.22;14.12;102630.38;4988225;28;19929;-63
2022/03/17 13:02:23;;;;;;;;;;;;;;;13.80;14.45;102630.72;4985688;28;19928;-63
2022/03/17 13:08:11;;;;;;;;;;;;;;;13.17;14.76;102626.28;4985781;28;20325;-62
2022/03/17 13:17:03;;;;;;;;;;;;;;;13.93;14.69;102613.09;4963713;28;19929;-61
2022/03/17 13:19:49;;;;;;;;;;;;;;;13.88;14.67;102615.72;4968370;28;20302;-63
2022/03/17 13:22:39;;;;;;;;;;;;;;;13.86;14.27;102601.44;4967357;28;19932;-67
2022/03/17 13:25:24;;;;;;;;;;;;;;;13.60;14.70;102607.34;4973429;28;20365;-63
2022/03/17 13:28:12;;;;;;;;;;;;;;;13.57;14.79;102610.00;4966907;28;19964;-62
2022/03/17 13:30:57;;;;;;;;;;;;;;;13.18;14.89;102606.78;4984342;28;19971;-63
2022/03/17 13:33:51;;;;;;;;;;;;;;;12.69;14.92;102605.06;4968529;28;19968;-63
2022/03/17 13:36:55;;;;;;;;;;;;;;;12.71;14.74;102598.00;4966749;28;20250;-61
2022/03/17 13:39:41;;;;;;;;;;;;;;;12.65;15.05;102600.56;4951992;28;19960;-65
2022/03/17 13:42:26;;;;;;;;;;;;;;;12.24;15.12;102598.06;4984135;28;19948;-69
2022/03/17 13:45:10;;;;;;;;;;;;;;;12.07;15.58;102589.75;4952390;28;20396;-62
2022/03/17 13:48:00;;;;;;;;;;;;;;;11.75;15.82;102580.25;4967897;28;19928;-63
2022/03/17 13:50:48;;;;;;;;;;;;;;;11.92;15.81;102589.47;4983118;28;19972;-64
2022/03/17 13:53:33;;;;;;;;;;;;;;;11.93;15.44;102593.00;4945432;28;20057;-67
2022/03/17 13:56:26;;;;;;;;;;;;;;;11.79;15.51;102595.41;4985533;28;19968;-65
2022/03/17 13:59:13;;;;;;;;;;;;;;;11.92;15.55;102593.88;4984242;28;20743;-64
2022/03/17 14:02:18;;;;;;;;;;;;;;;11.97;15.42;102593.13;4969009;28;19929;-63
2022/03/17 14:05:11;;;;;;;;;;;;;;;11.72;15.84;102592.59;4980660;28;19928;-61
2022/03/17 14:07:56;;;;;;;;;;;;;;;11.73;15.30;102592.63;4983200;28;19985;-62
2022/03/17 14:10:40;;;;;;;;;;;;;;;11.79;15.49;102590.09;4980387;28;19940;-68
2022/03/17 14:13:26;;;;;;;;;;;;;;;11.42;15.93;102589.25;4982931;28;20012;-63
2022/03/17 14:16:12;;;;;;;;;;;;;;;11.13;16.63;102596.59;4980518;28;19947;-63
2022/03/17 14:19:00;;;;;;;;;;;;;;;10.83;16.07;102590.56;4967065;28;19984;-64
2022/03/17 14:24:47;;;;;;;;;;;;;;;10.01;17.29;102597.22;4979488;28;20309;-64
2022/03/17 14:27:32;;;;;;;;;;;;;;;9.50;17.48;102590.50;4965889;28;19928;-64
2022/03/17 14:30:16;;;;;;;;;;;;;;;9.46;17.74;102585.94;4983276;28;20088;-65
2022/03/17 14:33:01;;;;;;;;;;;;;;;9.21;17.65;102596.66;4984292;28;19937;-63
2022/03/17 14:35:45;;;;;;;;;;;;;;;8.81;17.99;102591.88;4982966;28;19932;-64
2022/03/17 14:38:32;;;;;;;;;;;;;;;8.50;18.29;102604.94;4966219;28;19928;-65
2022/03/17 14:41:16;;;;;;;;;;;;;;;8.44;18.19;102590.63;4982514;28;20341;-64
2022/03/17 14:44:03;;;;;;;;;;;;;;;8.35;18.32;102599.13;4965037;28;19946;-65
2022/03/17 14:46:48;;;;;;;;;;;;;;;8.22;18.68;102599.56;4954799;28;19929;-63